createdAt,value
2023-01-29T00:01:52.178Z,17.13
2023-01-29T00:04:18.747Z,26.53
2023-01-29T00:06:45.289Z,20.80
2023-01-29T00:09:13.470Z,15.43
2023-01-29T00:11:40.380Z,17.77
2023-01-29T00:14:07.119Z,17.40
2023-01-29T00:16:33.966Z,18.40
2023-01-29T00:19:02.071Z,18.40
2023-01-29T00:21:30.941Z,15.03
2023-01-29T00:23:58.083Z,18.60
2023-01-29T00:26:25.790Z,15.27
2023-01-29T00:28:52.620Z,21.73
2023-01-29T00:31:21.798Z,15.57
2023-01-29T00:33:49.289Z,16.73
2023-01-29T00:36:18.770Z,15.80
2023-01-29T00:38:54.560Z,19.20
2023-01-29T00:41:51.723Z,15.80
2023-01-29T00:44:40.802Z,17.03
2023-01-29T00:47:26.404Z,17.03
2023-01-29T00:50:00.074Z,19.37
2023-01-29T00:52:28.033Z,14.33
2023-01-29T00:54:58.831Z,19.23
2023-01-29T00:57:33.964Z,18.50
2023-01-29T01:00:04.022Z,15.80
2023-01-29T01:02:52.128Z,15.97
2023-01-29T01:05:38.569Z,25.00
2023-01-29T01:08:31.989Z,16.23
2023-01-29T01:11:08.679Z,17.40
2023-01-29T01:13:43.954Z,22.50
2023-01-29T01:16:21.947Z,16.27
2023-01-29T01:18:55.567Z,21.83
2023-01-29T01:21:39.179Z,16.70
2023-01-29T01:24:08.477Z,18.53
2023-01-29T01:26:35.612Z,19.00
2023-01-29T01:29:02.739Z,15.47
2023-01-29T01:31:40.350Z,16.47
2023-01-29T01:34:31.774Z,16.30
2023-01-29T01:37:06.459Z,16.10
2023-01-29T01:39:34.225Z,14.90
2023-01-29T01:42:12.630Z,17.70
2023-01-29T01:45:08.537Z,18.10
2023-01-29T01:47:48.189Z,14.47
2023-01-29T01:50:32.494Z,15.20
2023-01-29T01:53:12.656Z,18.17
2023-01-29T01:55:46.012Z,17.57
2023-01-29T01:58:21.871Z,15.70
2023-01-29T02:00:51.549Z,15.27
2023-01-29T02:03:40.131Z,19.77
2023-01-29T02:06:26.924Z,18.43
2023-01-29T02:09:29.894Z,17.00
2023-01-29T02:11:57.047Z,13.57
2023-01-29T02:14:27.591Z,17.90
2023-01-29T02:16:57.115Z,16.10
2023-01-29T02:19:50.498Z,18.63
2023-01-29T02:22:39.231Z,20.43
2023-01-29T02:25:26.651Z,19.30
2023-01-29T02:28:11.068Z,17.30
2023-01-29T02:31:09.610Z,17.53
2023-01-29T02:34:07.775Z,18.13
2023-01-29T02:37:00.109Z,16.23
2023-01-29T02:39:42.223Z,19.30
2023-01-29T02:42:25.680Z,18.60
2023-01-29T02:45:04.127Z,19.60
2023-01-29T02:47:43.830Z,19.67
2023-01-29T02:50:29.941Z,16.93
2023-01-29T02:53:11.658Z,18.90
2023-01-29T02:55:45.386Z,17.67
2023-01-29T02:58:38.751Z,16.20
2023-01-29T03:01:16.528Z,16.13
2023-01-29T03:03:52.385Z,18.53
2023-01-29T03:06:30.551Z,16.53
2023-01-29T03:09:48.190Z,19.83
2023-01-29T03:12:35.856Z,17.00
2023-01-29T03:15:26.890Z,19.70
2023-01-29T03:18:14.188Z,17.77
2023-01-29T03:20:54.115Z,21.20
2023-01-29T03:23:47.357Z,22.47
2023-01-29T03:26:40.098Z,18.27
2023-01-29T03:29:34.026Z,18.23
2023-01-29T03:32:15.320Z,23.33
2023-01-29T03:34:52.128Z,20.50
2023-01-29T03:37:30.566Z,21.37
2023-01-29T03:40:06.789Z,17.83
2023-01-29T03:42:56.885Z,21.43
2023-01-29T03:45:44.436Z,22.97
2023-01-29T03:48:19.672Z,17.93
2023-01-29T03:51:33.706Z,19.50
2023-01-29T03:54:31.752Z,23.07
2023-01-29T03:57:35.727Z,16.77
2023-01-29T04:00:18.910Z,17.30
2023-01-29T04:03:25.783Z,17.60
2023-01-29T04:06:19.158Z,20.67
2023-01-29T04:09:12.877Z,19.50
2023-01-29T04:11:48.689Z,20.50
2023-01-29T04:14:16.243Z,16.60
2023-01-29T04:16:51.470Z,20.97
2023-01-29T04:19:40.316Z,18.47
2023-01-29T04:22:16.764Z,16.93
2023-01-29T04:24:51.431Z,19.87
2023-01-29T04:28:06.680Z,21.07
2023-01-29T04:30:58.471Z,19.63
2023-01-29T04:33:32.808Z,20.20
2023-01-29T04:36:28.290Z,16.80
2023-01-29T04:39:19.803Z,18.23
2023-01-29T04:42:04.543Z,21.80
2023-01-29T04:44:43.674Z,18.03
2023-01-29T04:47:55.654Z,20.10
2023-01-29T04:50:28.470Z,18.70
2023-01-29T04:53:11.784Z,16.93
2023-01-29T04:55:47.463Z,19.30
2023-01-29T04:58:32.616Z,17.00
2023-01-29T05:01:03.110Z,20.30
2023-01-29T05:03:33.029Z,19.23
2023-01-29T05:06:02.076Z,19.27
2023-01-29T05:08:30.583Z,19.23
2023-01-29T05:10:59.475Z,20.97
2023-01-29T05:13:28.908Z,19.70
2023-01-29T05:16:13.788Z,22.53
2023-01-29T05:18:43.611Z,21.77
2023-01-29T05:21:10.584Z,18.47
2023-01-29T05:23:40.259Z,20.07
2023-01-29T05:26:06.902Z,22.00
2023-01-29T05:28:33.570Z,22.00
2023-01-29T05:31:00.300Z,32.20
2023-01-29T05:33:29.572Z,19.77
2023-01-29T05:35:58.136Z,20.00
2023-01-29T05:38:25.215Z,19.00
2023-01-29T05:40:52.353Z,23.13
2023-01-29T05:43:24.377Z,23.13
2023-01-29T05:45:56.899Z,21.57
2023-01-29T05:48:23.880Z,20.23
2023-01-29T05:50:51.375Z,19.73
2023-01-29T05:53:21.137Z,20.87
2023-01-29T05:55:48.485Z,22.90
2023-01-29T05:58:15.379Z,23.07
2023-01-29T06:00:42.219Z,21.77
2023-01-29T06:03:09.185Z,18.07
2023-01-29T06:05:39.665Z,20.53
2023-01-29T06:08:07.236Z,21.17
2023-01-29T06:11:30.748Z,19.90
2023-01-29T06:13:58.367Z,20.70
2023-01-29T06:16:25.024Z,20.53
2023-01-29T06:18:51.820Z,25.07
2023-01-29T06:21:20.919Z,20.70
2023-01-29T06:23:56.900Z,20.00
2023-01-29T06:26:24.970Z,23.83
2023-01-29T06:28:51.753Z,24.43
2023-01-29T06:31:42.726Z,19.43
2023-01-29T06:34:23.089Z,22.27
2023-01-29T06:36:49.751Z,24.53
2023-01-29T06:39:16.988Z,25.97
2023-01-29T06:41:46.582Z,24.70
2023-01-29T06:44:13.601Z,24.30
2023-01-29T06:46:43.365Z,22.60
2023-01-29T06:49:10.459Z,25.70
2023-01-29T06:51:39.672Z,27.60
2023-01-29T06:54:08.256Z,24.33
2023-01-29T06:56:34.954Z,24.43
2023-01-29T06:59:01.801Z,22.43
2023-01-29T07:01:36.138Z,22.67
2023-01-29T07:04:04.205Z,24.57
2023-01-29T07:06:33.962Z,23.53
2023-01-29T07:09:01.445Z,23.30
2023-01-29T07:11:28.793Z,23.97
2023-01-29T07:13:56.581Z,22.13
2023-01-29T07:16:26.551Z,25.87
2023-01-29T07:19:01.732Z,21.17
2023-01-29T07:21:41.933Z,22.50
2023-01-29T07:24:09.485Z,25.77
2023-01-29T07:26:39.327Z,31.47
2023-01-29T07:29:06.390Z,28.73
2023-01-29T07:31:33.981Z,27.00
2023-01-29T07:34:06.081Z,27.53
2023-01-29T07:36:32.990Z,26.83
2023-01-29T07:39:03.006Z,27.03
2023-01-29T07:41:32.695Z,27.80
2023-01-29T07:44:01.976Z,26.10
2023-01-29T07:46:34.953Z,29.40
2023-01-29T07:49:01.971Z,32.80
2023-01-29T07:51:34.101Z,29.07
2023-01-29T07:54:03.351Z,25.10
2023-01-29T07:56:30.300Z,32.43
2023-01-29T07:59:01.929Z,29.27
2023-01-29T08:01:29.348Z,30.03
2023-01-29T08:03:56.932Z,35.67
2023-01-29T08:06:28.280Z,32.20
2023-01-29T08:08:57.474Z,30.83
2023-01-29T08:11:26.697Z,30.80
2023-01-29T08:13:54.617Z,29.20
2023-01-29T08:16:23.137Z,37.80
2023-01-29T08:18:50.424Z,30.90
2023-01-29T08:21:17.860Z,32.77
2023-01-29T08:23:45.493Z,32.93
2023-01-29T08:26:22.491Z,34.30
2023-01-29T08:28:49.526Z,39.70
2023-01-29T08:31:19.805Z,32.57
2023-01-29T08:33:49.975Z,37.83
2023-01-29T08:36:23.067Z,30.97
2023-01-29T08:38:56.374Z,32.53
2023-01-29T08:41:28.153Z,31.63
2023-01-29T08:44:12.674Z,35.43
2023-01-29T08:46:43.169Z,31.73
2023-01-29T08:49:13.467Z,33.30
2023-01-29T08:51:46.751Z,34.43
2023-01-29T08:54:23.207Z,32.27
2023-01-29T08:57:07.530Z,32.70
2023-01-29T08:59:44.788Z,32.40
2023-01-29T09:02:25.998Z,34.37
2023-01-29T09:04:59.252Z,34.10
2023-01-29T09:07:42.643Z,36.50
2023-01-29T09:10:21.634Z,30.93
2023-01-29T09:12:52.816Z,35.43
2023-01-29T09:15:27.659Z,37.33
2023-01-29T09:20:46.334Z,29.50
2023-01-29T09:23:29.596Z,32.67
2023-01-29T09:26:08.677Z,35.50
2023-01-29T09:28:36.283Z,33.10
2023-01-29T09:31:11.832Z,32.67
2023-01-29T09:34:01.363Z,33.53
2023-01-29T09:36:37.866Z,31.23
2023-01-29T09:39:12.442Z,32.43
2023-01-29T09:42:12.841Z,30.20
2023-01-29T09:45:27.456Z,28.27
2023-01-29T09:48:13.579Z,28.30
2023-01-29T09:50:52.942Z,29.13
2023-01-29T09:53:53.331Z,26.90
2023-01-29T09:56:30.549Z,28.77
2023-01-29T09:59:01.537Z,30.03
2023-01-29T10:01:41.523Z,30.87
2023-01-29T10:04:26.372Z,27.33
2023-01-29T10:07:28.326Z,24.63
2023-01-29T10:10:02.625Z,27.43
2023-01-29T10:13:09.764Z,30.43
2023-01-29T10:16:01.264Z,27.97
2023-01-29T10:18:55.383Z,22.83
2023-01-29T10:22:00.279Z,24.47
2023-01-29T10:24:46.861Z,28.73
2023-01-29T10:27:19.076Z,28.50
2023-01-29T10:29:54.547Z,27.63
2023-01-29T10:32:33.874Z,27.47
2023-01-29T10:35:21.691Z,25.70
2023-01-29T10:38:02.797Z,27.50
2023-01-29T10:40:41.845Z,25.23
2023-01-29T10:43:14.807Z,24.27
2023-01-29T10:45:56.602Z,32.30
2023-01-29T10:48:47.166Z,23.03
2023-01-29T10:51:35.191Z,28.47
2023-01-29T10:54:14.708Z,23.53
2023-01-29T10:56:59.255Z,29.83
2023-01-29T10:59:29.538Z,24.47
2023-01-29T11:02:02.876Z,22.27
2023-01-29T11:04:33.329Z,21.50
2023-01-29T11:07:03.121Z,26.80
2023-01-29T11:10:02.629Z,28.43
2023-01-29T11:12:36.580Z,27.47
2023-01-29T11:15:22.230Z,25.70
2023-01-29T11:18:17.289Z,25.77
2023-01-29T11:21:03.562Z,22.87
2023-01-29T11:24:00.887Z,21.20
2023-01-29T11:26:37.925Z,26.73
2023-01-29T11:29:13.865Z,24.70
2023-01-29T11:31:45.580Z,24.23
2023-01-29T11:34:24.927Z,25.23
2023-01-29T11:40:39.449Z,22.80
2023-01-29T11:43:33.320Z,23.00
2023-01-29T11:46:20.432Z,22.30
2023-01-29T11:48:58.948Z,25.17
2023-01-29T11:51:32.667Z,23.70
2023-01-29T11:54:09.589Z,20.73
2023-01-29T11:56:45.334Z,24.17
2023-01-29T11:59:50.036Z,22.30
2023-01-29T12:02:37.795Z,20.40
2023-01-29T12:05:19.765Z,21.60
2023-01-29T12:07:55.617Z,21.97
2023-01-29T12:10:45.444Z,22.70
2023-01-29T12:13:21.107Z,30.07
2023-01-29T12:16:14.106Z,20.90
2023-01-29T12:18:54.492Z,23.50
2023-01-29T12:21:39.177Z,20.23
2023-01-29T12:24:32.491Z,21.67
2023-01-29T12:27:23.910Z,21.20
2023-01-29T12:30:22.707Z,19.57
2023-01-29T12:32:58.779Z,26.50
2023-01-29T12:35:35.069Z,21.00
2023-01-29T12:38:16.650Z,22.33
2023-01-29T12:40:56.084Z,25.83
2023-01-29T12:43:53.847Z,20.00
2023-01-29T12:46:30.378Z,22.80
2023-01-29T12:49:07.278Z,22.80
2023-01-29T12:51:43.193Z,24.17
2023-01-29T12:54:21.635Z,22.17
2023-01-29T12:56:53.501Z,20.47
2023-01-29T12:59:50.816Z,21.47
2023-01-29T13:02:31.954Z,22.33
2023-01-29T13:05:18.786Z,24.07
2023-01-29T13:08:05.583Z,20.23
2023-01-29T13:10:43.848Z,22.23
2023-01-29T13:13:28.801Z,23.10
2023-01-29T13:16:01.570Z,22.73
2023-01-29T13:18:37.927Z,22.57
2023-01-29T13:21:05.462Z,23.80
2023-01-29T13:23:48.723Z,21.47
2023-01-29T13:26:20.315Z,22.20
2023-01-29T13:28:50.366Z,23.53
2023-01-29T13:31:24.945Z,23.00
2023-01-29T13:34:18.268Z,23.83
2023-01-29T13:36:51.811Z,25.27
2023-01-29T13:39:38.342Z,22.13
2023-01-29T13:42:34.499Z,24.13
2023-01-29T13:45:28.426Z,22.07
2023-01-29T13:48:20.552Z,26.17
2023-01-29T13:50:53.254Z,24.67
2023-01-29T13:53:24.585Z,26.17
2023-01-29T13:55:54.811Z,22.80
2023-01-29T13:58:38.893Z,41.40
2023-01-29T14:01:09.085Z,22.77
2023-01-29T14:04:10.144Z,27.10
2023-01-29T14:06:40.861Z,24.40
2023-01-29T14:09:32.980Z,22.40
2023-01-29T14:12:09.998Z,24.00
2023-01-29T14:14:49.092Z,21.30
2023-01-29T14:17:20.776Z,24.10
2023-01-29T14:19:57.826Z,25.57
2023-01-29T14:22:35.370Z,25.13
2023-01-29T14:25:06.219Z,26.80
2023-01-29T14:27:40.885Z,29.60
2023-01-29T14:30:18.031Z,27.20
2023-01-29T14:32:55.688Z,26.37
2023-01-29T14:35:29.933Z,28.93
2023-01-29T14:38:11.653Z,28.67
2023-01-29T14:41:04.289Z,26.77
2023-01-29T14:43:31.638Z,28.67
2023-01-29T14:46:44.964Z,27.03
2023-01-29T14:49:15.123Z,27.73
2023-01-29T14:51:46.216Z,26.20
2023-01-29T14:54:40.180Z,26.87
2023-01-29T14:57:31.464Z,31.70
2023-01-29T15:00:19.291Z,26.00
2023-01-29T15:03:04.971Z,25.73
2023-01-29T15:05:41.297Z,29.47
2023-01-29T15:08:46.684Z,23.53
2023-01-29T15:11:44.712Z,30.30
2023-01-29T15:14:44.484Z,31.33
2023-01-29T15:17:24.012Z,25.77
2023-01-29T15:20:03.168Z,32.50
2023-01-29T15:22:44.538Z,27.33
2023-01-29T15:25:22.694Z,31.70
2023-01-29T15:28:02.637Z,36.33
2023-01-29T15:30:38.245Z,32.13
2023-01-29T15:33:20.195Z,33.07
2023-01-29T15:35:58.831Z,25.60
2023-01-29T15:38:37.804Z,33.83
2023-01-29T15:41:17.538Z,26.37
2023-01-29T15:44:00.602Z,32.40
2023-01-29T15:46:33.993Z,32.13
2023-01-29T15:49:20.484Z,28.70
2023-01-29T15:52:02.457Z,27.53
2023-01-29T15:54:39.025Z,26.53
2023-01-29T15:57:08.433Z,28.03
2023-01-29T15:59:44.839Z,31.03
2023-01-29T16:02:44.398Z,34.50
2023-01-29T16:05:18.879Z,34.80
2023-01-29T16:07:52.281Z,34.17
2023-01-29T16:10:26.532Z,31.80
2023-01-29T16:12:56.952Z,35.50
2023-01-29T16:15:40.563Z,36.07
2023-01-29T16:18:24.715Z,31.27
2023-01-29T16:21:01.052Z,31.70
2023-01-29T16:23:37.026Z,40.13
2023-01-29T16:26:21.552Z,49.23
2023-01-29T16:28:57.374Z,37.47
2023-01-29T16:31:32.448Z,41.50
2023-01-29T16:34:07.469Z,43.70
2023-01-29T16:36:48.108Z,34.63
2023-01-29T16:39:22.322Z,39.67
2023-01-29T16:42:26.741Z,44.90
2023-01-29T16:44:55.688Z,40.03
2023-01-29T16:47:39.367Z,40.90
2023-01-29T16:50:18.147Z,39.23
2023-01-29T16:53:05.718Z,45.40
2023-01-29T16:55:47.073Z,39.10
2023-01-29T16:58:22.487Z,44.10
2023-01-29T17:01:10.462Z,45.87
2023-01-29T17:03:45.155Z,40.03
2023-01-29T17:06:26.773Z,35.63
2023-01-29T17:08:56.799Z,37.37
2023-01-29T17:11:56.115Z,41.50
2023-01-29T17:14:42.465Z,46.73
2023-01-29T17:17:19.394Z,43.13
2023-01-29T17:19:48.898Z,39.27
2023-01-29T17:22:20.794Z,40.87
2023-01-29T17:24:51.752Z,43.87
2023-01-29T17:27:24.369Z,46.03
2023-01-29T17:29:54.676Z,40.13
2023-01-29T17:32:43.933Z,42.47
2023-01-29T17:35:16.965Z,41.80
2023-01-29T17:37:51.877Z,42.90
2023-01-29T17:41:03.056Z,40.93
2023-01-29T17:43:48.089Z,36.50
2023-01-29T17:46:37.124Z,44.80
2023-01-29T17:49:41.408Z,39.03
2023-01-29T17:52:39.116Z,44.83
2023-01-29T17:55:26.617Z,46.70
2023-01-29T17:58:35.591Z,33.63
2023-01-29T18:02:40.184Z,36.73
2023-01-29T19:19:57.661Z,45.93
2023-01-29T19:40:22.382Z,45.87
2023-01-29T19:43:30.561Z,41.00
2023-01-29T19:46:00.957Z,41.70
2023-01-29T19:48:28.546Z,46.37
2023-01-29T19:50:57.120Z,48.50
2023-01-29T19:53:24.813Z,55.73
2023-01-29T19:55:59.534Z,45.83
2023-01-29T19:58:26.662Z,45.23
2023-01-29T20:01:02.265Z,42.20
2023-01-29T20:03:29.239Z,45.90
2023-01-29T20:06:00.809Z,43.17
2023-01-29T20:08:27.320Z,42.63
2023-01-29T20:10:53.939Z,52.67
2023-01-29T20:13:20.416Z,42.53
2023-01-29T20:15:48.672Z,44.83
2023-01-29T20:18:15.924Z,40.90
2023-01-29T20:20:44.619Z,43.23
2023-01-29T20:23:12.114Z,45.00
2023-01-29T20:25:38.948Z,44.40
2023-01-29T20:28:07.579Z,38.57
2023-01-29T20:30:35.112Z,38.43
2023-01-29T20:33:02.577Z,44.67
2023-01-29T20:35:31.055Z,45.97
2023-01-29T20:37:57.821Z,44.80
2023-01-29T20:40:25.237Z,50.67
2023-01-29T20:42:52.360Z,40.77
2023-01-29T20:45:18.924Z,42.10
2023-01-29T20:47:45.709Z,40.23
2023-01-29T20:50:15.342Z,46.40
2023-01-29T20:52:42.467Z,40.50
2023-01-29T20:55:11.539Z,44.77
2023-01-29T20:57:39.365Z,44.83
2023-01-29T21:00:07.906Z,50.20
2023-01-29T21:02:34.643Z,44.87
2023-01-29T21:05:01.150Z,44.27
2023-01-29T21:07:28.008Z,45.33
2023-01-29T21:09:54.547Z,46.73
2023-01-29T21:12:21.035Z,40.60
2023-01-29T21:14:47.516Z,43.87
2023-01-29T21:17:14.123Z,39.67
2023-01-29T21:19:40.626Z,39.87
2023-01-29T21:22:07.139Z,38.77
2023-01-29T21:24:33.677Z,39.13
2023-01-29T21:27:00.191Z,46.23
2023-01-29T21:29:26.934Z,42.80
2023-01-29T21:31:53.787Z,37.47
2023-01-29T21:34:20.329Z,40.10
2023-01-29T21:36:46.843Z,36.63
2023-01-29T21:39:16.547Z,44.10
2023-01-29T21:42:07.282Z,41.00
2023-01-29T21:44:34.924Z,42.03
2023-01-29T21:47:12.061Z,38.60
2023-01-29T21:49:40.397Z,39.97
2023-01-29T21:52:07.710Z,43.97
2023-01-29T21:54:35.527Z,44.23
2023-01-29T21:57:07.424Z,39.70
2023-01-29T21:59:34.690Z,46.20
2023-01-29T22:02:01.626Z,40.10
2023-01-29T22:04:28.774Z,41.30
2023-01-29T22:06:56.041Z,44.23
2023-01-29T22:09:22.677Z,41.20
2023-01-29T22:11:49.748Z,49.00
2023-01-29T22:14:18.415Z,41.63
2023-01-29T22:16:45.940Z,35.87
2023-01-29T22:19:13.570Z,43.10
2023-01-29T22:21:40.616Z,45.40
2023-01-29T22:24:07.924Z,46.03
2023-01-29T22:26:35.626Z,46.67
2023-01-29T22:29:02.655Z,43.50
2023-01-29T22:31:29.179Z,44.60
2023-01-29T22:33:55.735Z,49.67
2023-01-29T22:36:22.271Z,43.70
2023-01-29T22:38:48.847Z,50.77
2023-01-29T22:41:15.486Z,52.40
2023-01-29T22:43:43.806Z,49.60
2023-01-29T22:46:11.736Z,44.70
2023-01-29T22:48:38.262Z,41.43
2023-01-29T22:51:11.720Z,43.20
2023-01-29T22:53:43.090Z,57.30
2023-01-29T22:56:11.262Z,42.70
2023-01-29T22:58:37.812Z,49.63
2023-01-29T23:01:04.870Z,50.83
2023-01-29T23:03:31.395Z,44.97
2023-01-29T23:05:57.951Z,47.83
2023-01-29T23:08:24.577Z,45.70
2023-01-29T23:10:51.363Z,46.23
2023-01-29T23:13:18.016Z,48.83
2023-01-29T23:15:44.674Z,46.17
2023-01-29T23:18:11.292Z,53.40
2023-01-29T23:20:38.780Z,43.40
2023-01-29T23:23:05.349Z,47.80
2023-01-29T23:25:50.320Z,41.80
2023-01-29T23:28:16.820Z,40.93
2023-01-29T23:30:45.109Z,46.87
2023-01-29T23:33:12.227Z,49.67
2023-01-29T23:35:38.930Z,42.80
2023-01-29T23:38:05.430Z,48.07
2023-01-29T23:40:31.928Z,39.23
2023-01-29T23:42:58.466Z,47.63
2023-01-29T23:45:24.941Z,43.67
2023-01-29T23:47:51.468Z,45.47
2023-01-29T23:50:18.454Z,44.00
2023-01-29T23:52:45.230Z,40.80
2023-01-29T23:55:11.752Z,47.50
2023-01-29T23:57:38.260Z,40.93
